Time;durP1;ratioP1;P1;durP2;ratioP2;P2;SDS_P1;SDS_P2;PMS_P1;PMS_P2;Temp;Humidity;BMP_temperature;BMP_pressure;BME280_temperature;BME280_humidity;BME280_pressure;Samples;Min_cycle;Max_cycle;Signal;HPM_P1;HPM_P2
2022/11/22 00:00:48;;;;;;;22.65;12.70;;;;;;;5.85;100.00;98833.94;5114094;28;20111;-57
2022/11/22 00:03:14;;;;;;;21.83;12.27;;;;;;;5.78;100.00;98838.59;5112706;28;20134;-56
2022/11/22 00:05:39;;;;;;;25.73;13.30;;;;;;;5.37;100.00;98771.75;5114228;28;20080;-57
2022/11/22 00:08:05;;;;;;;22.35;13.60;;;;;;;5.38;100.00;98776.88;5113844;28;20028;-57
2022/11/22 00:10:30;;;;;;;22.85;13.52;;;;;;;5.61;100.00;98835.88;5112704;28;20036;-55
2022/11/22 00:12:55;;;;;;;21.77;12.77;;;;;;;5.57;100.00;98829.13;5113685;28;20165;-57
2022/11/22 00:15:21;;;;;;;24.45;14.05;;;;;;;5.50;100.00;98825.06;5113674;28;20036;-57
2022/11/22 00:17:46;;;;;;;23.77;13.52;;;;;;;5.50;100.00;98835.50;5112395;28;20043;-55
2022/11/22 00:20:12;;;;;;;21.52;12.57;;;;;;;5.48;100.00;98832.13;5113657;28;20032;-55
2022/11/22 00:22:38;;;;;;;23.85;14.18;;;;;;;5.30;100.00;98814.66;5113530;28;20068;-56
2022/11/22 00:25:03;;;;;;;24.42;14.45;;;;;;;5.36;100.00;98832.66;5078720;28;21204;-57
2022/11/22 00:27:29;;;;;;;27.00;14.60;;;;;;;5.05;100.00;98781.78;5113726;28;20039;-56
2022/11/22 00:29:54;;;;;;;29.67;14.07;;;;;;;5.36;100.00;98833.50;5113327;28;20043;-56
2022/11/22 00:32:19;;;;;;;23.35;13.57;;;;;;;5.25;100.00;98814.88;5113369;28;20036;-56
2022/11/22 00:34:44;;;;;;;23.35;13.63;;;;;;;5.30;100.00;98823.34;5111619;28;20059;-57
2022/11/22 00:37:10;;;;;;;27.33;15.32;;;;;;;5.39;100.00;98838.59;5113300;28;20027;-57
2022/11/22 00:39:35;;;;;;;24.17;13.88;;;;;;;5.34;100.00;98822.28;5113619;28;20379;-56
2022/11/22 00:42:00;;;;;;;24.60;13.30;;;;;;;5.40;100.00;98826.41;5112128;28;20740;-57
2022/11/22 00:44:26;;;;;;;24.65;13.38;;;;;;;5.40;100.00;98824.63;5112033;28;20526;-56
2022/11/22 00:46:51;;;;;;;29.67;14.55;;;;;;;5.55;100.00;98852.66;5094750;28;20050;-55
2022/11/22 00:49:16;;;;;;;24.15;13.88;;;;;;;5.27;100.00;98778.28;5113015;28;20087;-55
2022/11/22 00:51:42;;;;;;;23.65;12.60;;;;;;;5.67;100.00;98836.47;5113024;28;20074;-55
2022/11/22 00:54:07;;;;;;;24.85;13.70;;;;;;;5.37;100.00;98784.78;5112796;28;20461;-55
2022/11/22 00:56:33;;;;;;;24.05;13.60;;;;;;;5.70;100.00;98845.91;5113212;28;20478;-55
2022/11/22 00:58:58;;;;;;;26.48;13.23;;;;;;;5.67;100.00;98854.75;5111330;28;20043;-54
2022/11/22 01:01:24;;;;;;;26.00;13.43;;;;;;;5.25;100.00;98794.00;5113052;28;20400;-56
2022/11/22 01:03:49;;;;;;;25.88;12.45;;;;;;;5.51;100.00;98848.50;5112706;28;20148;-56
2022/11/22 01:06:14;;;;;;;22.55;13.10;;;;;;;5.09;100.00;98788.59;5112746;28;20467;-53
2022/11/22 01:08:40;;;;;;;27.75;12.30;;;;;;;5.40;100.00;98845.50;5112589;27;20497;-57
2022/11/22 01:11:05;;;;;;;29.85;12.73;;;;;;;5.35;100.00;98841.38;5111579;28;20038;-57
2022/11/22 01:13:30;;;;;;;22.70;12.00;;;;;;;4.94;100.00;98768.38;5111417;28;20493;-55
2022/11/22 01:16:01;;;;;;;29.40;12.55;;;;;;;4.81;100.00;98754.19;5111288;28;20045;-56
2022/11/22 01:18:27;;;;;;;24.55;12.00;;;;;;;5.26;100.00;98833.94;5112627;28;20043;-57
2022/11/22 01:20:52;;;;;;;29.35;11.27;;;;;;;5.20;100.00;98827.25;5112391;28;20418;-55
2022/11/22 01:23:18;;;;;;;19.98;10.63;;;;;;;4.84;100.00;98780.13;5112244;28;20064;-55
2022/11/22 01:25:43;;;;;;;24.77;10.70;;;;;;;5.21;100.00;98857.63;5112333;28;20560;-57
2022/11/22 01:28:09;;;;;;;27.45;11.00;;;;;;;5.16;100.00;98849.16;5112348;28;20413;-54
2022/11/22 01:30:34;;;;;;;25.42;10.93;;;;;;;5.11;100.00;98849.34;5111174;28;20468;-55
2022/11/22 01:32:59;;;;;;;22.67;8.85;;;;;;;5.17;100.00;98842.19;5112221;28;20040;-56
2022/11/22 01:35:25;;;;;;;17.35;8.65;;;;;;;5.19;100.00;98856.00;5112310;28;20129;-57
2022/11/22 01:37:50;;;;;;;31.25;10.55;;;;;;;5.17;100.00;98845.63;5112176;28;20464;-57
2022/11/22 01:40:15;;;;;;;27.83;9.80;;;;;;;5.11;100.00;98833.69;5112467;28;20040;-55
2022/11/22 01:42:54;;;;;;;28.55;9.35;;;;;;;4.73;100.00;98774.47;5111037;28;20403;-56
2022/11/22 01:45:29;;;;;;;23.08;9.25;;;;;;;5.08;100.00;98836.44;5096001;28;20388;-56
2022/11/22 01:48:12;;;;;;;24.40;8.02;;;;;;;5.09;100.00;98839.88;5116176;28;20475;-54
2022/11/22 01:50:40;;;;;;;22.67;7.07;;;;;;;4.88;100.00;98788.63;5116339;28;20032;-56
2022/11/22 01:53:14;;;;;;;23.02;7.30;;;;;;;4.74;100.00;98770.13;5116403;28;20058;-58
2022/11/22 01:55:40;;;;;;;19.25;7.35;;;;;;;4.75;100.00;98772.69;5116180;28;20027;-57
2022/11/22 01:58:07;;;;;;;23.50;7.32;;;;;;;4.98;100.00;98837.75;5114783;28;20156;-56
2022/11/22 02:00:32;;;;;;;26.00;7.25;;;;;;;5.11;100.00;98840.66;5116014;28;20053;-56
2022/11/22 02:03:00;;;;;;;21.30;5.85;;;;;;;4.92;100.00;98805.84;5116432;28;20126;-57
2022/11/22 02:05:29;;;;;;;20.08;5.97;;;;;;;5.18;100.00;98854.31;5115089;28;20031;-59
2022/11/22 02:08:03;;;;;;;20.10;5.18;;;;;;;5.17;100.00;98865.66;5114712;28;20034;-60
2022/11/22 02:10:29;;;;;;;18.38;5.35;;;;;;;4.77;100.00;98786.47;5115876;28;20214;-60
2022/11/22 02:12:56;;;;;;;19.63;5.32;;;;;;;5.05;100.00;98846.97;5114483;28;20134;-60
2022/11/22 02:15:22;;;;;;;22.48;5.55;;;;;;;4.70;100.00;98787.63;5097588;28;20031;-61
2022/11/22 02:17:47;;;;;;;27.33;5.57;;;;;;;5.10;100.00;98850.28;5114652;28;20038;-60
2022/11/22 02:20:15;;;;;;;30.30;5.80;;;;;;;5.06;100.00;98840.00;5114466;28;20400;-60
2022/11/22 02:22:52;;;;;;;25.83;5.95;;;;;;;5.12;100.00;98860.63;5097759;28;20059;-59
2022/11/22 02:25:29;;;;;;;20.48;4.97;;;;;;;5.07;100.00;98863.44;5115975;28;20039;-59
2022/11/22 02:27:55;;;;;;;19.02;4.07;;;;;;;4.63;100.00;98785.34;5115772;27;20040;-63
2022/11/22 02:30:20;;;;;;;19.23;5.15;;;;;;;4.96;100.00;98863.00;5115638;28;20042;-60
2022/11/22 02:32:45;;;;;;;16.35;4.45;;;;;;;4.62;100.00;98794.94;5115546;28;20048;-59
2022/11/22 02:35:19;;;;;;;22.25;4.60;;;;;;;4.94;100.00;98846.59;5114813;28;20631;-60
2022/11/22 02:37:46;;;;;;;18.23;5.03;;;;;;;5.00;100.00;98867.19;5115318;28;20438;-59
2022/11/22 02:40:13;;;;;;;20.25;4.80;;;;;;;4.63;100.00;98804.44;5114079;28;20048;-60
2022/11/22 02:42:41;;;;;;;23.65;5.25;;;;;;;5.01;100.00;98875.88;5115705;28;20028;-58
2022/11/22 02:45:07;;;;;;;22.20;5.43;;;;;;;4.60;100.00;98812.38;5114389;28;20111;-59
2022/11/22 02:47:32;;;;;;;24.85;5.65;;;;;;;4.89;100.00;98869.41;5115193;28;20118;-59
2022/11/22 02:49:57;;;;;;;20.35;4.95;;;;;;;4.64;100.00;98821.75;5113720;28;20051;-60
2022/11/22 02:52:23;;;;;;;17.73;4.70;;;;;;;4.86;100.00;98858.25;5115098;28;20491;-59
2022/11/22 02:54:48;;;;;;;15.35;4.13;;;;;;;4.88;100.00;98877.25;5114935;28;20031;-59
2022/11/22 02:57:13;;;;;;;15.70;3.92;;;;;;;4.58;100.00;98814.22;5113836;28;20039;-59
2022/11/22 02:59:39;;;;;;;25.38;4.60;;;;;;;4.81;100.00;98865.41;5113773;28;20441;-59
2022/11/22 03:02:04;;;;;;;23.42;4.88;;;;;;;4.83;100.00;98885.28;5115215;28;20040;-60
2022/11/22 03:04:29;;;;;;;18.38;4.55;;;;;;;4.71;100.00;98867.53;5115006;28;20488;-59
2022/11/22 03:06:56;;;;;;;22.98;4.10;;;;;;;4.60;100.00;98840.19;5113817;28;20468;-59
2022/11/22 03:09:23;;;;;;;23.35;5.07;;;;;;;4.94;100.00;98890.06;5113285;28;20119;-59
2022/11/22 03:11:48;;;;;;;26.50;4.13;;;;;;;4.82;100.00;98873.16;5114688;28;20137;-59
2022/11/22 03:14:14;;;;;;;17.75;4.57;;;;;;;4.59;100.00;98833.28;5114846;28;20110;-59
2022/11/22 03:16:41;;;;;;;29.13;6.00;;;;;;;4.98;100.00;98882.06;5114806;28;20032;-59
2022/11/22 03:19:06;;;;;;;24.50;4.10;;;;;;;4.95;100.00;98878.72;5114565;27;20204;-59
2022/11/22 03:21:32;;;;;;;17.67;4.20;;;;;;;5.04;100.00;98881.81;5114559;28;20508;-59
2022/11/22 03:23:57;;;;;;;19.98;4.43;;;;;;;4.91;100.00;98878.00;5113356;28;20024;-59
2022/11/22 03:26:22;;;;;;;20.88;5.10;;;;;;;4.64;100.00;98831.34;5113538;28;20044;-59
2022/11/22 03:28:48;;;;;;;20.75;4.20;;;;;;;4.93;100.00;98889.19;5114625;28;20043;-60
2022/11/22 03:31:13;;;;;;;16.83;3.85;;;;;;;4.90;100.00;98902.34;5114386;28;20031;-59
2022/11/22 03:33:38;;;;;;;17.98;3.72;;;;;;;4.85;100.00;98906.06;5114289;28;20499;-60
2022/11/22 03:36:04;;;;;;;17.45;4.20;;;;;;;4.82;100.00;98899.22;5114271;28;20480;-60
2022/11/22 03:38:29;;;;;;;12.13;3.50;;;;;;;4.83;100.00;98903.53;5114126;28;20039;-60
2022/11/22 03:40:55;;;;;;;17.33;3.95;;;;;;;4.80;100.00;98913.22;5095946;28;20035;-59
2022/11/22 03:43:20;;;;;;;15.32;3.33;;;;;;;4.74;100.00;98901.28;5113013;28;20433;-62
2022/11/22 03:45:46;;;;;;;19.15;3.55;;;;;;;4.33;100.00;98832.56;5114754;28;20489;-59
2022/11/22 03:48:12;;;;;;;16.75;4.25;;;;;;;4.62;100.00;98901.75;5112871;28;20058;-59
2022/11/22 03:50:37;;;;;;;11.65;2.83;;;;;;;4.59;100.00;98899.28;5112763;28;20076;-59
2022/11/22 03:53:03;;;;;;;8.68;3.03;;;;;;;4.52;100.00;98919.50;5112650;28;20148;-59
2022/11/22 03:55:28;;;;;;;19.63;3.45;;;;;;;4.44;100.00;98915.50;5114061;28;20343;-60
2022/11/22 03:57:53;;;;;;;9.55;2.92;;;;;;;3.64;100.00;98775.38;5114006;28;20073;-60
2022/11/22 04:00:19;;;;;;;14.98;2.90;;;;;;;4.33;100.00;98897.69;5112721;28;20434;-60
2022/11/22 04:02:44;;;;;;;18.35;4.95;;;;;;;4.36;100.00;98923.59;5112597;28;20460;-60
2022/11/22 04:05:09;;;;;;;15.02;3.45;;;;;;;4.24;100.00;98902.38;5113975;28;20035;-59
2022/11/22 04:07:35;;;;;;;15.75;3.55;;;;;;;4.27;100.00;98934.38;5113317;28;20050;-60
2022/11/22 04:10:00;;;;;;;15.52;3.60;;;;;;;3.91;100.00;98873.25;5112252;28;20027;-59
2022/11/22 04:12:25;;;;;;;11.80;3.47;;;;;;;3.82;100.00;98860.56;5112612;28;20452;-58
2022/11/22 04:15:06;;;;;;;14.30;3.75;;;;;;;4.22;100.00;98946.72;5095640;28;20042;-59
2022/11/22 04:17:39;;;;;;;15.70;4.30;;;;;;;4.29;100.00;98944.75;5112621;28;20036;-58
2022/11/22 04:23:05;;;;;;;16.17;3.50;;;;;;;4.15;100.00;98916.59;5112161;28;20039;-58
2022/11/22 04:25:32;;;;;;;13.43;3.50;;;;;;;4.21;100.00;98924.16;5095076;28;20391;-59
2022/11/22 04:27:58;;;;;;;14.88;3.40;;;;;;;4.20;100.00;98938.13;5113725;28;20039;-59
2022/11/22 04:33:09;;;;;;;15.63;3.78;;;;;;;3.83;100.00;98877.88;5113242;28;20100;-60
2022/11/22 04:35:35;;;;;;;15.93;4.03;;;;;;;4.16;100.00;98939.13;5111804;28;20126;-59
2022/11/22 04:38:00;;;;;;;19.63;3.42;;;;;;;4.34;100.00;98942.81;5111980;28;20027;-59
2022/11/22 04:40:25;;;;;;;11.02;3.10;;;;;;;4.03;100.00;98872.78;5113117;28;20031;-60
2022/11/22 04:45:34;;;;;;;16.00;3.80;;;;;;;4.66;100.00;98947.66;5113528;28;20082;-59
2022/11/22 04:48:00;;;;;;;11.77;3.30;;;;;;;4.70;100.00;98941.41;5111880;28;20448;-59
2022/11/22 04:53:11;;;;;;;16.45;3.45;;;;;;;4.71;100.00;98944.84;5113317;28;20116;-58
2022/11/22 04:55:36;;;;;;;11.90;3.05;;;;;;;4.35;100.00;98879.41;5112798;28;20039;-59
2022/11/22 04:58:02;;;;;;;15.48;3.47;;;;;;;4.80;100.00;98954.94;5113056;28;20167;-58
2022/11/22 05:00:28;;;;;;;11.07;3.35;;;;;;;4.45;100.00;98886.78;5112928;27;20034;-58
2022/11/22 05:02:54;;;;;;;13.27;3.78;;;;;;;4.46;100.00;98882.44;5111693;28;20118;-58
2022/11/22 05:05:20;;;;;;;15.75;4.13;;;;;;;4.86;100.00;98952.94;5111259;28;20568;-58
2022/11/22 05:07:45;;;;;;;19.88;4.93;;;;;;;4.54;100.00;98890.78;5112574;28;20487;-58
2022/11/22 05:10:10;;;;;;;12.55;3.85;;;;;;;4.60;100.00;98903.59;5112387;28;20035;-57
2022/11/22 05:12:36;;;;;;;20.98;3.72;;;;;;;4.61;100.00;98899.22;5112492;28;20132;-57
2022/11/22 05:15:02;;;;;;;12.40;3.47;;;;;;;4.91;100.00;98950.13;4999398;28;20046;-58
2022/11/22 05:17:27;;;;;;;10.35;3.15;;;;;;;4.85;100.00;98940.81;5009461;28;20099;-60
2022/11/22 05:19:52;;;;;;;15.07;3.60;;;;;;;4.63;100.00;98894.78;4998795;28;20077;-59
2022/11/22 05:23:52;;;;;;;11.00;4.10;;;;;;;4.63;100.00;98892.19;4988427;28;20053;-60
2022/11/22 05:25:04;;;;;;;10.65;3.72;;;;;;;4.98;100.00;98957.69;4989708;28;20042;-60
2022/11/22 05:27:29;;;;;;;15.25;4.65;;;;;;;4.97;100.00;98962.94;4989972;28;20410;-59
2022/11/22 05:29:55;;;;;;;15.20;4.53;;;;;;;5.00;100.00;98955.84;4990114;28;20138;-60
2022/11/22 05:32:20;;;;;;;14.02;4.75;;;;;;;5.03;100.00;98949.66;5000973;28;20249;-60
2022/11/22 05:34:46;;;;;;;10.57;4.40;;;;;;;4.97;100.00;98953.34;5008179;28;20065;-59
2022/11/22 05:37:11;;;;;;;16.27;5.40;;;;;;;4.73;100.00;98920.44;5008267;28;20577;-61
2022/11/22 05:39:37;;;;;;;16.02;5.07;;;;;;;4.93;100.00;98951.78;5007977;28;20034;-60
2022/11/22 05:42:04;;;;;;;8.85;4.28;;;;;;;4.93;100.00;98963.97;5009324;28;20102;-61
2022/11/22 05:44:30;;;;;;;9.82;4.50;;;;;;;4.93;100.00;98945.72;5009290;28;20033;-61
2022/11/22 05:46:56;;;;;;;15.55;4.32;;;;;;;4.92;100.00;98946.63;5009401;28;20426;-61
2022/11/22 05:49:21;;;;;;;9.93;4.25;;;;;;;4.86;100.00;98936.44;5009203;28;20364;-59
2022/11/22 05:51:47;;;;;;;18.05;4.43;;;;;;;4.89;100.00;98949.34;5007880;28;20124;-59
2022/11/22 05:54:12;;;;;;;8.80;3.92;;;;;;;4.88;100.00;98958.06;5009162;28;20115;-59
2022/11/22 05:56:38;;;;;;;10.48;4.03;;;;;;;4.88;100.00;98945.91;5009059;28;20066;-59
2022/11/22 05:59:04;;;;;;;8.15;4.13;;;;;;;4.77;100.00;98937.66;5009053;28;20080;-60
2022/11/22 06:01:29;;;;;;;12.40;3.90;;;;;;;4.85;100.00;98951.22;5007873;28;20103;-58
2022/11/22 06:03:54;;;;;;;8.85;4.00;;;;;;;4.50;100.00;98887.47;5009084;28;20061;-58
2022/11/22 06:06:20;;;;;;;10.50;4.10;;;;;;;4.49;100.00;98887.53;5009008;28;20121;-59
2022/11/22 06:08:47;;;;;;;10.63;4.85;;;;;;;4.89;100.00;98947.59;4997437;28;20053;-60
2022/11/22 06:11:21;;;;;;;12.32;4.78;;;;;;;4.90;100.00;98951.88;4989740;28;20034;-58
2022/11/22 06:13:49;;;;;;;11.55;4.65;;;;;;;4.94;100.00;98950.88;4989409;28;20041;-58
2022/11/22 06:16:15;;;;;;;15.80;5.93;;;;;;;4.88;100.00;98930.25;4988024;28;20046;-60
2022/11/22 06:18:41;;;;;;;9.68;6.07;;;;;;;4.95;100.00;98956.94;4989389;28;20038;-60
2022/11/22 06:21:11;;;;;;;10.23;6.32;;;;;;;4.98;100.00;98944.63;4989375;28;20084;-59
2022/11/22 06:23:37;;;;;;;16.67;6.82;;;;;;;4.93;100.00;98945.72;4991397;28;20034;-59
2022/11/22 06:26:05;;;;;;;13.43;6.82;;;;;;;4.99;100.00;98946.31;5007493;28;20409;-59
2022/11/22 06:28:32;;;;;;;11.05;6.57;;;;;;;4.92;100.00;98933.59;5008601;28;20033;-60
2022/11/22 06:31:04;;;;;;;14.15;6.90;;;;;;;4.99;100.00;98941.09;5010121;28;20030;-60
2022/11/22 06:33:30;;;;;;;14.30;7.50;;;;;;;5.02;100.00;98942.75;5011820;28;20026;-60
2022/11/22 06:36:25;;;;;;;13.90;7.20;;;;;;;5.05;100.00;98948.69;5012258;28;20037;-58
2022/11/22 06:38:51;;;;;;;9.95;6.75;;;;;;;5.06;100.00;98942.56;5002447;28;20446;-60
2022/11/22 06:41:22;;;;;;;12.60;6.68;;;;;;;4.64;100.00;98883.47;5011868;28;20076;-60
2022/11/22 06:43:49;;;;;;;13.90;7.10;;;;;;;5.03;100.00;98950.50;5012234;28;20062;-60
2022/11/22 06:46:20;;;;;;;11.40;6.50;;;;;;;4.71;100.00;98890.13;5011852;28;20043;-58
2022/11/22 06:48:46;;;;;;;9.90;6.67;;;;;;;5.06;100.00;98952.13;5011941;28;20034;-62
2022/11/22 06:51:15;;;;;;;10.05;6.13;;;;;;;4.85;100.00;98922.56;5012231;28;20111;-61
2022/11/22 06:53:40;;;;;;;10.27;6.15;;;;;;;5.00;100.00;98944.56;5011663;28;20069;-60
2022/11/22 06:56:11;;;;;;;9.00;6.10;;;;;;;4.98;100.00;98954.22;5010498;28;20107;-60
2022/11/22 06:58:37;;;;;;;12.52;6.20;;;;;;;4.83;100.00;98932.19;5011470;28;20053;-58
2022/11/22 07:01:26;;;;;;;10.07;5.15;;;;;;;5.03;100.00;98960.94;5011518;28;20025;-58
2022/11/22 07:03:56;;;;;;;14.80;5.22;;;;;;;4.65;100.00;98900.78;5011370;28;20042;-60
2022/11/22 07:06:23;;;;;;;7.35;4.90;;;;;;;4.75;100.00;98903.00;5011299;28;20034;-60
2022/11/22 07:08:48;;;;;;;8.68;4.97;;;;;;;5.06;100.00;98960.81;4995435;28;20034;-59
2022/11/22 07:11:19;;;;;;;7.57;4.95;;;;;;;5.03;100.00;98953.13;4991365;28;20046;-60
2022/11/22 07:13:45;;;;;;;14.40;5.18;;;;;;;5.13;100.00;98963.19;4997669;28;20054;-59
2022/11/22 07:16:12;;;;;;;13.60;5.35;;;;;;;5.17;100.00;98964.78;5005594;28;20034;-61
2022/11/22 07:18:38;;;;;;;10.70;5.25;;;;;;;4.94;100.00;98918.72;4992040;28;20616;-60
2022/11/22 07:21:11;;;;;;;8.48;5.07;;;;;;;4.83;100.00;98913.97;4991526;28;20062;-60
2022/11/22 07:23:37;;;;;;;9.25;5.53;;;;;;;4.88;100.00;98903.34;4991301;28;20057;-60
2022/11/22 07:26:02;;;;;;;7.90;5.22;;;;;;;5.13;100.00;98958.81;4992952;28;20619;-61
2022/11/22 07:28:28;;;;;;;12.55;6.32;;;;;;;4.84;100.00;98907.00;4995326;28;20030;-62
2022/11/22 07:30:59;;;;;;;9.55;5.47;;;;;;;5.23;100.00;98969.72;4999551;28;20042;-61
2022/11/22 07:33:24;;;;;;;10.60;6.10;;;;;;;5.22;100.00;98975.84;5010911;28;20037;-64
2022/11/22 07:35:49;;;;;;;9.00;5.20;;;;;;;5.04;100.00;98936.56;5009031;28;20126;-60
2022/11/22 07:38:14;;;;;;;10.25;5.60;;;;;;;5.10;100.00;98941.53;5007878;28;20059;-62
2022/11/22 07:40:40;;;;;;;12.40;6.63;;;;;;;5.01;100.00;98941.91;4977001;28;20039;-59
2022/11/22 07:43:05;;;;;;;13.32;5.85;;;;;;;5.25;100.00;98978.34;5010250;28;20034;-62
2022/11/22 07:45:30;;;;;;;11.18;5.82;;;;;;;5.17;100.00;98954.34;4996868;28;20093;-61
2022/11/22 07:47:58;;;;;;;11.48;5.97;;;;;;;4.84;100.00;98907.00;5005714;28;20542;-60
2022/11/22 07:50:24;;;;;;;9.20;6.15;;;;;;;5.32;100.00;98977.16;5000809;28;20088;-62
2022/11/22 07:52:58;;;;;;;12.80;5.95;;;;;;;5.32;100.00;98996.28;5009799;28;20034;-63
2022/11/22 07:55:25;;;;;;;8.77;5.88;;;;;;;5.36;100.00;98991.81;5010572;28;20042;-61
2022/11/22 07:57:54;;;;;;;10.63;6.05;;;;;;;5.35;100.00;98982.25;5010570;28;20038;-61
2022/11/22 08:00:19;;;;;;;12.13;5.05;;;;;;;5.32;100.00;98970.19;5009125;28;20410;-63
2022/11/22 08:02:45;;;;;;;10.85;5.50;;;;;;;5.45;100.00;98992.28;5010589;28;20034;-59
2022/11/22 08:05:11;;;;;;;12.23;4.78;;;;;;;5.47;100.00;98994.81;5010117;28;20435;-61
2022/11/22 08:07:36;;;;;;;11.20;4.95;;;;;;;5.32;100.00;98958.91;5009284;28;20478;-60
2022/11/22 08:10:02;;;;;;;11.60;4.38;;;;;;;5.48;100.00;98983.47;5009376;28;20034;-62
2022/11/22 08:12:27;;;;;;;6.65;4.22;;;;;;;5.60;100.00;99009.06;5010331;28;20082;-59
2022/11/22 08:14:53;;;;;;;6.78;4.40;;;;;;;5.25;100.00;98957.47;5010402;28;20042;-60
2022/11/22 08:17:18;;;;;;;7.57;4.45;;;;;;;5.52;100.00;98993.72;5010196;28;20130;-61
2022/11/22 08:19:43;;;;;;;11.32;4.53;;;;;;;5.66;100.00;99017.47;5010358;28;20038;-59
2022/11/22 08:22:09;;;;;;;12.48;4.97;;;;;;;5.66;100.00;98985.34;5010534;28;20030;-63
2022/11/22 08:24:34;;;;;;;5.97;4.32;;;;;;;5.24;100.00;98938.38;5010360;28;20091;-61
2022/11/22 08:26:59;;;;;;;8.90;4.18;;;;;;;5.71;100.00;99009.47;5008907;28;20440;-56
2022/11/22 08:29:24;;;;;;;7.72;4.07;;;;;;;5.55;100.00;98983.16;5010115;28;20466;-58
2022/11/22 08:31:50;;;;;;;11.27;4.45;;;;;;;5.71;100.00;98990.34;5010235;28;20242;-58
2022/11/22 08:34:15;;;;;;;9.48;4.60;;;;;;;5.77;100.00;99013.59;5009948;28;20050;-60
2022/11/22 08:36:40;;;;;;;7.28;4.00;;;;;;;5.56;100.00;98982.25;5009948;28;20084;-57
2022/11/22 08:39:06;;;;;;;9.68;4.93;;;;;;;5.84;100.00;99026.31;5009074;28;20431;-57
2022/11/22 08:41:31;;;;;;;11.23;5.03;;;;;;;5.82;100.00;99007.25;5010218;28;20038;-59
2022/11/22 08:43:56;;;;;;;7.57;4.03;;;;;;;5.94;100.00;99032.03;5006604;28;20117;-61
2022/11/22 08:46:22;;;;;;;6.15;3.53;;;;;;;5.52;100.00;98972.84;5008478;28;20037;-58
2022/11/22 08:48:47;;;;;;;5.55;3.45;;;;;;;5.60;100.00;98980.38;5007432;28;20054;-55
2022/11/22 08:51:13;;;;;;;8.13;3.72;;;;;;;5.64;100.00;98990.59;5007020;28;20083;-57
2022/11/22 08:53:40;;;;;;;10.90;4.35;;;;;;;5.56;100.00;98955.28;5007611;28;20474;-60
2022/11/22 08:56:08;;;;;;;9.63;3.40;;;;;;;5.93;100.00;99022.50;5008123;28;20120;-58
2022/11/22 08:58:34;;;;;;;6.85;3.92;;;;;;;5.56;100.00;98963.97;5006039;28;20062;-61
2022/11/22 09:01:09;;;;;;;8.55;3.35;;;;;;;5.96;100.00;99043.25;5008069;28;20042;-60
2022/11/22 09:03:34;;;;;;;8.10;3.83;;;;;;;5.89;100.00;99039.22;5008067;28;20033;-59
2022/11/22 09:06:05;;;;;;;7.57;3.30;;;;;;;5.87;100.00;99027.97;5007100;28;20036;-61
2022/11/22 09:08:31;;;;;;;8.30;3.95;;;;;;;5.51;100.00;98994.66;5008147;28;20040;-60
2022/11/22 09:11:00;;;;;;;6.63;3.80;;;;;;;5.84;100.00;99043.75;5008065;28;20038;-60
2022/11/22 09:13:27;;;;;;;5.45;3.65;;;;;;;5.48;100.00;98991.31;5008006;28;20056;-60
2022/11/22 09:15:52;;;;;;;8.77;3.60;;;;;;;5.82;100.00;99038.59;5007871;28;20112;-60
2022/11/22 09:18:17;;;;;;;11.50;4.07;;;;;;;5.49;100.00;98987.75;5007843;28;20113;-61
2022/11/22 09:20:43;;;;;;;14.82;4.43;;;;;;;5.50;100.00;98985.09;5008160;28;20542;-58
2022/11/22 09:23:08;;;;;;;8.80;5.03;;;;;;;5.53;100.00;98998.03;5007950;28;20049;-59
2022/11/22 09:25:33;;;;;;;12.63;5.45;;;;;;;5.66;100.00;99017.47;5007667;28;20046;-59
2022/11/22 09:28:01;;;;;;;8.48;4.53;;;;;;;5.79;100.00;99030.88;5007919;28;20038;-60
2022/11/22 09:30:27;;;;;;;10.20;4.68;;;;;;;5.61;100.00;98989.88;5006597;28;20086;-59
2022/11/22 09:32:52;;;;;;;7.50;4.22;;;;;;;5.61;100.00;98995.09;5008047;28;20455;-60
2022/11/22 09:35:19;;;;;;;7.88;4.70;;;;;;;5.95;100.00;99049.41;5007642;28;20141;-61
2022/11/22 09:37:44;;;;;;;8.98;4.40;;;;;;;5.66;100.00;98990.56;5007878;28;20375;-60
2022/11/22 09:40:10;;;;;;;6.60;3.97;;;;;;;5.77;100.00;99003.13;5008377;28;20038;-60
2022/11/22 09:42:57;;;;;;;10.05;4.55;;;;;;;6.13;100.00;99061.66;5009115;28;20042;-62
2022/11/22 09:45:41;;;;;;;4.85;3.65;;;;;;;6.18;100.00;99067.56;5007520;28;20034;-60
2022/11/22 09:48:09;;;;;;;8.95;4.47;;;;;;;6.20;100.00;99056.13;5006283;28;20041;-60
2022/11/22 09:50:56;;;;;;;6.53;4.72;;;;;;;6.21;100.00;99065.69;5007642;28;20086;-61
2022/11/22 09:53:29;;;;;;;14.98;4.63;;;;;;;6.19;100.00;99062.25;5007486;28;20281;-60
2022/11/22 09:55:59;;;;;;;8.30;3.90;;;;;;;5.83;100.00;98995.06;5006235;28;20072;-60
2022/11/22 09:58:54;;;;;;;8.18;4.43;;;;;;;6.26;100.00;99069.84;5006149;28;20532;-57
2022/11/22 10:01:26;;;;;;;5.70;3.95;;;;;;;6.29;100.00;99070.56;5020213;28;20050;-59
2022/11/22 10:03:57;;;;;;;8.45;3.65;;;;;;;6.21;100.00;99052.63;5006041;28;20030;-61
2022/11/22 10:06:31;;;;;;;8.65;4.32;;;;;;;5.94;100.00;99011.13;5007983;28;20034;-60
2022/11/22 10:09:13;;;;;;;10.27;4.10;;;;;;;5.96;100.00;99004.94;5009651;28;20061;-58
2022/11/22 10:11:53;;;;;;;11.07;4.15;;;;;;;6.34;100.00;99079.03;5009509;28;20034;-62
2022/11/22 10:14:30;;;;;;;8.23;3.65;;;;;;;6.35;100.00;99077.28;5009407;28;20034;-59
2022/11/22 10:17:23;;;;;;;7.03;3.88;;;;;;;5.96;100.00;99023.22;5010863;28;20378;-61
2022/11/22 10:20:15;;;;;;;10.70;3.63;;;;;;;6.17;100.00;99058.03;5010540;28;20033;-61
2022/11/22 10:22:40;;;;;;;8.00;3.50;;;;;;;6.28;100.00;99065.38;5011785;28;20363;-60
2022/11/22 10:25:28;;;;;;;6.55;4.35;;;;;;;6.32;100.00;99067.81;5008859;28;20040;-61
2022/11/22 10:27:57;;;;;;;5.85;3.78;;;;;;;6.40;100.00;99059.63;5010881;28;20042;-61
2022/11/22 10:30:24;;;;;;;5.97;3.20;;;;;;;6.36;100.00;99048.50;5009471;28;20041;-58
2022/11/22 10:33:03;;;;;;;4.47;2.83;;;;;;;6.42;100.00;99069.09;5009320;28;20045;-61
2022/11/22 10:36:08;;;;;;;4.78;3.20;;;;;;;6.40;100.00;99055.25;5010466;28;20054;-60
2022/11/22 10:38:55;;;;;;;8.05;3.30;;;;;;;6.40;100.00;99059.63;5026566;28;20049;-59
2022/11/22 10:41:39;;;;;;;8.93;3.03;;;;;;;6.45;100.00;99048.06;5007870;28;20466;-59
2022/11/22 10:44:17;;;;;;;7.82;4.18;;;;;;;6.49;100.00;99057.47;5000296;28;20033;-58
2022/11/22 10:47:20;;;;;;;6.82;3.33;;;;;;;6.49;100.00;99046.16;5025281;28;20025;-58
2022/11/22 10:50:11;;;;;;;8.23;2.63;;;;;;;6.47;100.00;99056.72;5005116;28;20042;-57
2022/11/22 10:52:52;;;;;;;6.13;3.00;;;;;;;6.48;100.00;99062.78;5000590;28;20052;-60
2022/11/22 10:55:49;;;;;;;5.10;3.35;;;;;;;6.47;100.00;99050.63;5008738;28;20091;-61
2022/11/22 10:58:35;;;;;;;5.57;2.95;;;;;;;6.49;100.00;99049.63;5008625;28;20034;-60
2022/11/22 11:01:14;;;;;;;6.18;2.85;;;;;;;6.44;100.00;99035.06;4975576;28;20052;-59
2022/11/22 11:03:42;;;;;;;6.35;3.00;;;;;;;6.33;100.00;99017.28;4990361;28;20034;-57
2022/11/22 11:06:20;;;;;;;10.57;3.55;;;;;;;6.58;100.00;99036.16;5005442;28;20109;-59
2022/11/22 11:08:56;;;;;;;8.45;3.13;;;;;;;6.31;100.00;98990.34;4990602;28;20494;-59
2022/11/22 11:11:24;;;;;;;6.75;2.70;;;;;;;6.40;100.00;99002.16;4988964;28;20030;-60
2022/11/22 11:13:52;;;;;;;5.40;2.85;;;;;;;6.38;100.00;98986.56;5004665;28;20155;-60
2022/11/22 11:16:20;;;;;;;6.57;2.40;;;;;;;6.66;100.00;99035.81;4988430;28;20045;-60
2022/11/22 11:18:50;;;;;;;4.88;2.55;;;;;;;6.46;100.00;98987.03;5004045;28;20045;-59
2022/11/22 11:21:15;;;;;;;5.85;2.80;;;;;;;6.89;100.00;99046.06;4987918;28;20038;-58
2022/11/22 11:23:41;;;;;;;4.75;2.97;;;;;;;6.94;100.00;99038.88;4989498;28;20030;-58
2022/11/22 11:26:27;;;;;;;7.25;2.92;;;;;;;7.00;100.00;99038.59;4988047;28;20038;-59
2022/11/22 11:29:17;;;;;;;4.55;2.40;;;;;;;7.12;100.00;99038.00;5004460;28;20539;-57
2022/11/22 11:31:50;;;;;;;6.72;2.60;;;;;;;6.82;100.00;98978.44;4988939;28;20060;-61
2022/11/22 11:34:27;;;;;;;8.93;3.05;;;;;;;6.74;100.00;98974.41;5004147;28;20429;-60
2022/11/22 11:36:55;;;;;;;3.75;2.67;;;;;;;6.83;100.00;98974.91;4989572;28;20034;-60
2022/11/22 11:39:22;;;;;;;8.48;2.67;;;;;;;7.16;100.00;99007.31;4989527;28;20079;-58
2022/11/22 11:41:48;;;;;;;5.60;3.40;;;;;;;7.17;100.00;98999.41;5004460;28;20073;-60
2022/11/22 11:44:30;;;;;;;5.78;2.70;;;;;;;7.52;100.00;99031.75;4989340;28;20066;-59